createdAt,value
2023-01-29T03:33:12.664Z,-1.35
2023-01-29T03:35:46.998Z,-1.40
2023-01-29T03:38:15.583Z,-1.41
2023-01-29T03:40:51.068Z,-1.42
2023-01-29T03:43:30.193Z,-1.41
2023-01-29T03:46:04.017Z,-1.41
2023-01-29T03:48:38.833Z,-1.42
2023-01-29T03:51:22.384Z,-1.44
2023-01-29T03:53:54.256Z,-1.43
2023-01-29T03:56:35.429Z,-1.40
2023-01-29T03:59:13.382Z,-1.42
2023-01-29T04:01:47.389Z,-1.50
2023-01-29T04:04:22.920Z,-1.44
2023-01-29T04:06:52.171Z,-1.46
2023-01-29T04:09:24.615Z,-1.51
2023-01-29T04:12:00.529Z,-1.53
2023-01-29T04:14:29.601Z,-1.51
2023-01-29T04:17:02.955Z,-1.51
2023-01-29T04:19:33.881Z,-1.52
2023-01-29T04:22:04.634Z,-1.54
2023-01-29T04:24:33.537Z,-1.62
2023-01-29T04:27:13.335Z,-1.62
2023-01-29T04:29:50.867Z,-1.61
2023-01-29T04:32:48.624Z,-1.66
2023-01-29T04:35:28.478Z,-1.73
2023-01-29T04:38:06.576Z,-1.68
2023-01-29T04:40:45.838Z,-1.68
2023-01-29T04:43:21.661Z,-1.64
2023-01-29T04:46:02.110Z,-1.68
2023-01-29T04:48:39.350Z,-1.74
2023-01-29T04:51:15.468Z,-1.71
2023-01-29T04:53:49.460Z,-1.70
2023-01-29T04:56:23.742Z,-1.67
2023-01-29T04:59:00.159Z,-1.72
2023-01-29T05:01:30.276Z,-1.67
2023-01-29T05:04:01.811Z,-1.68
2023-01-29T05:06:32.357Z,-1.64
2023-01-29T05:09:01.740Z,-1.65
2023-01-29T05:11:32.558Z,-1.67
2023-01-29T05:14:05.426Z,-1.67
2023-01-29T05:16:38.668Z,-1.63
2023-01-29T05:19:07.236Z,-1.62
2023-01-29T05:21:42.861Z,-1.69
2023-01-29T05:24:12.656Z,-1.65
2023-01-29T05:26:42.843Z,-1.65
2023-01-29T05:29:10.519Z,-1.64
2023-01-29T05:31:38.108Z,-1.65
2023-01-29T05:34:05.945Z,-1.60
2023-01-29T05:36:33.858Z,-1.58
2023-01-29T05:39:02.858Z,-1.56
2023-01-29T05:41:30.617Z,-1.55
2023-01-29T05:43:59.669Z,-1.56
2023-01-29T05:46:27.759Z,-1.56
2023-01-29T05:48:55.571Z,-1.67
2023-01-29T05:51:23.564Z,-1.67
2023-01-29T05:53:51.109Z,-1.58
2023-01-29T05:56:20.586Z,-1.55
2023-01-29T05:58:48.900Z,-1.60
2023-01-29T06:01:19.564Z,-1.51
2023-01-29T06:03:47.825Z,-1.53
2023-01-29T06:06:16.477Z,-1.49
2023-01-29T06:08:44.411Z,-1.43
2023-01-29T06:11:14.414Z,-1.48
2023-01-29T06:13:43.747Z,-1.47
2023-01-29T06:16:13.087Z,-1.43
2023-01-29T06:18:44.001Z,-1.49
2023-01-29T06:21:13.666Z,-1.52
2023-01-29T06:23:41.519Z,-1.44
2023-01-29T06:26:12.420Z,-1.54
2023-01-29T06:28:40.321Z,-1.48
2023-01-29T06:31:30.405Z,-1.57
2023-01-29T06:33:59.057Z,-1.60
2023-01-29T06:36:26.729Z,-1.57
2023-01-29T06:38:59.491Z,-1.58
2023-01-29T06:41:27.228Z,-1.63
2023-01-29T06:43:54.768Z,-1.55
2023-01-29T06:46:24.329Z,-1.50
2023-01-29T06:48:52.236Z,-1.43
2023-01-29T06:51:21.413Z,-1.39
2023-01-29T06:53:49.036Z,-1.41
2023-01-29T06:56:16.777Z,-1.34
2023-01-29T06:58:45.273Z,-1.33
2023-01-29T07:01:25.472Z,-1.22
2023-01-29T07:04:02.404Z,-1.26
2023-01-29T07:06:31.021Z,-1.25
2023-01-29T07:08:59.098Z,-1.23
2023-01-29T07:11:28.885Z,-1.32
2023-01-29T07:13:56.573Z,-1.11
2023-01-29T07:16:24.135Z,-1.10
2023-01-29T07:18:52.171Z,-1.04
2023-01-29T07:21:21.650Z,-1.00
2023-01-29T07:23:49.196Z,-1.01
2023-01-29T07:26:17.162Z,-0.92
2023-01-29T07:28:45.167Z,-0.92
2023-01-29T12:57:47.822Z,0.06
2023-01-29T13:00:20.459Z,0.18
2023-01-29T13:02:55.857Z,0.26
2023-01-29T13:05:26.890Z,0.30
2023-01-29T13:08:01.556Z,0.35
2023-01-29T13:10:37.793Z,0.37
2023-01-29T13:13:15.985Z,0.41
2023-01-29T13:15:44.613Z,0.37
2023-01-29T13:18:30.070Z,0.42
2023-01-29T13:20:59.475Z,0.38
2023-01-29T13:23:34.383Z,0.40
2023-01-29T13:26:02.307Z,0.23
2023-01-29T13:28:45.395Z,0.32
2023-01-29T13:31:33.528Z,0.29
2023-01-29T13:34:14.015Z,0.26
2023-01-29T13:36:44.519Z,0.21
2023-01-29T13:39:23.090Z,0.33
2023-01-29T13:41:52.239Z,0.35
2023-01-29T13:44:25.297Z,0.28
2023-01-29T13:46:57.601Z,0.30
2023-01-29T13:49:34.801Z,0.32
2023-01-29T13:52:24.102Z,0.26
2023-01-29T13:54:55.803Z,0.24
2023-01-29T13:57:55.681Z,0.22
2023-01-29T14:00:59.289Z,0.20
2023-01-29T14:04:04.132Z,0.20
2023-01-29T14:06:49.638Z,0.12
2023-01-29T14:09:55.928Z,0.01
2023-01-29T14:12:44.288Z,0.02
2023-01-29T14:15:24.069Z,-0.06
2023-01-29T14:18:24.770Z,-0.02
2023-01-29T14:21:01.401Z,0.03
2023-01-29T14:23:40.489Z,0.02
2023-01-29T14:26:24.388Z,-0.05
2023-01-29T14:29:00.744Z,-0.05
2023-01-29T14:31:31.394Z,-0.06
2023-01-29T14:34:06.695Z,-0.00
2023-01-29T14:36:40.496Z,0.00
2023-01-29T14:39:21.111Z,-0.01
2023-01-29T14:41:50.770Z,-0.06
2023-01-29T14:44:57.638Z,-0.06
2023-01-29T14:47:57.429Z,-0.11
2023-01-29T14:50:46.586Z,-0.19
2023-01-29T14:53:20.826Z,-0.15
2023-01-29T14:55:53.315Z,-0.13
2023-01-29T14:58:28.084Z,-0.14
2023-01-29T15:00:59.655Z,-0.17
2023-01-29T15:03:39.732Z,-0.17
2023-01-29T15:06:15.634Z,-0.15
2023-01-29T15:08:49.373Z,-0.15
2023-01-29T15:11:25.769Z,-0.24
2023-01-29T15:14:00.687Z,-0.18
2023-01-29T15:16:35.405Z,-0.22
2023-01-29T15:19:14.402Z,-0.22
2023-01-29T15:22:05.260Z,-0.19
2023-01-29T15:24:33.486Z,-0.18
2023-01-29T15:27:01.709Z,-0.27
2023-01-29T15:29:30.001Z,-0.20
2023-01-29T21:45:57.492Z,-0.74
2023-01-29T21:48:25.677Z,-0.71
2023-01-29T21:50:53.377Z,-0.69
2023-01-29T21:53:21.176Z,-0.69
2023-01-29T21:55:48.824Z,-0.70
2023-01-29T21:58:16.435Z,-0.69
2023-01-29T22:00:44.697Z,-0.73
2023-01-29T22:03:14.088Z,-0.73
2023-01-29T22:05:42.315Z,-0.69
2023-01-29T22:08:10.440Z,-0.71
2023-01-29T22:10:38.436Z,-0.73
2023-01-29T22:13:06.793Z,-0.70
2023-01-29T22:15:34.841Z,-0.70
2023-01-29T22:18:02.627Z,-0.72
2023-01-29T22:20:31.761Z,-0.77
2023-01-29T22:22:59.584Z,-0.74
2023-01-29T22:25:27.647Z,-0.78
2023-01-29T22:27:55.255Z,-0.76
2023-01-29T22:30:22.965Z,-0.77
2023-01-29T22:32:51.351Z,-0.77
2023-01-29T22:35:19.138Z,-0.78
2023-01-29T22:37:48.554Z,-0.81
2023-01-29T22:40:16.895Z,-0.79
2023-01-29T22:42:44.762Z,-0.82
2023-01-29T22:45:12.661Z,-0.87
2023-01-29T22:47:40.842Z,-0.92
2023-01-29T22:50:09.703Z,-0.87
2023-01-29T22:52:37.412Z,-0.89
2023-01-29T22:55:10.163Z,-0.94
2023-01-29T22:57:37.985Z,-0.91
2023-01-29T23:00:10.795Z,-1.05
2023-01-29T23:02:38.616Z,-1.05
2023-01-29T23:05:07.569Z,-1.25
2023-01-29T23:07:35.327Z,-1.27
2023-01-29T23:10:03.197Z,-1.39
2023-01-29T23:12:32.459Z,-1.49
2023-01-29T23:15:00.167Z,-1.61
2023-01-29T23:17:27.918Z,-1.75
2023-01-29T23:19:55.580Z,-1.82
2023-01-29T23:22:23.233Z,-1.92
2023-01-29T23:24:51.322Z,-1.97
2023-01-29T23:27:19.409Z,-2.05
2023-01-29T23:29:49.103Z,-2.15
2023-01-29T23:32:18.924Z,-2.15
2023-01-29T23:34:46.672Z,-2.19
2023-01-29T23:37:14.344Z,-2.26
2023-01-29T23:39:42.267Z,-2.32
2023-01-29T23:42:09.942Z,-2.39
2023-01-29T23:44:37.456Z,-2.43
2023-01-29T23:47:07.168Z,-2.58
2023-01-29T23:49:35.178Z,-2.46
2023-01-29T23:52:02.912Z,-2.48
2023-01-29T23:54:31.197Z,-2.49
2023-01-29T23:56:58.893Z,-2.49
2023-01-29T23:59:27.365Z,-2.47
